sensor_id;sensor_type;location;lat;lon;timestamp;pressure;altitude;pressure_sealevel;temperature;humidity
71424;BME280;59240;51.370;-0.486;2022-07-21T00:00:26;101860.31;;;18.36;75.06
71424;BME280;59240;51.370;-0.486;2022-07-21T00:02:55;101859.66;;;18.29;75.09
71424;BME280;59240;51.370;-0.486;2022-07-21T00:05:23;101849.47;;;18.20;74.11
71424;BME280;59240;51.370;-0.486;2022-07-21T00:07:51;101857.31;;;18.21;74.69
71424;BME280;59240;51.370;-0.486;2022-07-21T00:10:20;101827.41;;;17.97;74.42
71424;BME280;59240;51.370;-0.486;2022-07-21T00:12:48;101853.47;;;18.07;74.31
71424;BME280;59240;51.370;-0.486;2022-07-21T00:15:17;101839.94;;;17.91;73.89
71424;BME280;59240;51.370;-0.486;2022-07-21T00:17:44;101852.19;;;17.93;74.11
71424;BME280;59240;51.370;-0.486;2022-07-21T00:20:12;101861.94;;;17.90;73.44
71424;BME280;59240;51.370;-0.486;2022-07-21T00:22:39;101855.13;;;17.84;73.09
71424;BME280;59240;51.370;-0.486;2022-07-21T00:25:07;101854.66;;;17.73;73.37
71424;BME280;59240;51.370;-0.486;2022-07-21T00:27:35;101859.97;;;17.70;73.13
71424;BME280;59240;51.370;-0.486;2022-07-21T00:30:07;101859.25;;;17.66;74.48
71424;BME280;59240;51.370;-0.486;2022-07-21T00:32:35;101843.97;;;17.49;72.95
71424;BME280;59240;51.370;-0.486;2022-07-21T00:35:03;101845.88;;;17.46;73.15
71424;BME280;59240;51.370;-0.486;2022-07-21T00:37:31;101864.00;;;17.55;73.00
71424;BME280;59240;51.370;-0.486;2022-07-21T00:39:58;101850.16;;;17.50;73.11
71424;BME280;59240;51.370;-0.486;2022-07-21T00:42:27;101859.72;;;17.53;73.42
71424;BME280;59240;51.370;-0.486;2022-07-21T00:44:55;101863.31;;;17.50;73.42
71424;BME280;59240;51.370;-0.486;2022-07-21T00:47:23;101843.50;;;17.38;74.15
71424;BME280;59240;51.370;-0.486;2022-07-21T00:49:51;101858.06;;;17.48;73.20
71424;BME280;59240;51.370;-0.486;2022-07-21T00:52:18;101834.88;;;17.33;73.47
71424;BME280;59240;51.370;-0.486;2022-07-21T00:54:46;101809.88;;;17.20;73.18
71424;BME280;59240;51.370;-0.486;2022-07-21T00:57:13;101853.78;;;17.46;73.78
71424;BME280;59240;51.370;-0.486;2022-07-21T00:59:41;101838.44;;;17.32;73.69
71424;BME280;59240;51.370;-0.486;2022-07-21T01:02:09;101837.72;;;17.27;72.62
71424;BME280;59240;51.370;-0.486;2022-07-21T01:04:36;101845.63;;;17.27;73.01
71424;BME280;59240;51.370;-0.486;2022-07-21T01:07:04;101857.69;;;17.34;73.29
71424;BME280;59240;51.370;-0.486;2022-07-21T01:09:32;101837.00;;;17.22;72.40
71424;BME280;59240;51.370;-0.486;2022-07-21T01:11:59;101843.25;;;17.19;72.74
71424;BME280;59240;51.370;-0.486;2022-07-21T01:14:27;101859.59;;;17.29;72.80
71424;BME280;59240;51.370;-0.486;2022-07-21T01:16:54;101825.19;;;17.09;72.51
71424;BME280;59240;51.370;-0.486;2022-07-21T01:19:21;101830.44;;;17.09;72.62
71424;BME280;59240;51.370;-0.486;2022-07-21T01:21:48;101855.41;;;17.23;73.05
71424;BME280;59240;51.370;-0.486;2022-07-21T01:24:15;101849.47;;;17.17;72.55
71424;BME280;59240;51.370;-0.486;2022-07-21T01:26:44;101864.13;;;17.26;72.37
71424;BME280;59240;51.370;-0.486;2022-07-21T01:29:12;101842.56;;;17.13;72.73
71424;BME280;59240;51.370;-0.486;2022-07-21T01:31:41;101839.03;;;17.14;73.38
71424;BME280;59240;51.370;-0.486;2022-07-21T01:34:09;101840.00;;;17.11;72.76
71424;BME280;59240;51.370;-0.486;2022-07-21T01:36:37;101816.63;;;17.01;72.75
71424;BME280;59240;51.370;-0.486;2022-07-21T01:39:04;101858.06;;;17.22;72.85
71424;BME280;59240;51.370;-0.486;2022-07-21T01:41:50;101840.00;;;17.11;73.50
71424;BME280;59240;51.370;-0.486;2022-07-21T01:44:18;101840.97;;;17.09;73.44
71424;BME280;59240;51.370;-0.486;2022-07-21T01:46:47;101860.94;;;17.14;73.38
71424;BME280;59240;51.370;-0.486;2022-07-21T01:49:15;101852.50;;;17.05;73.28
71424;BME280;59240;51.370;-0.486;2022-07-21T01:51:43;101855.22;;;17.02;73.29
71424;BME280;59240;51.370;-0.486;2022-07-21T01:54:11;101869.28;;;17.01;73.61
71424;BME280;59240;51.370;-0.486;2022-07-21T01:56:39;101877.84;;;17.09;73.53
71424;BME280;59240;51.370;-0.486;2022-07-21T01:59:06;101884.91;;;17.07;73.44
71424;BME280;59240;51.370;-0.486;2022-07-21T02:01:34;101878.78;;;17.06;74.10
71424;BME280;59240;51.370;-0.486;2022-07-21T02:04:03;101878.03;;;17.03;74.33
71424;BME280;59240;51.370;-0.486;2022-07-21T02:06:31;101864.22;;;16.94;73.73
71424;BME280;59240;51.370;-0.486;2022-07-21T02:08:57;101846.09;;;16.85;73.58
71424;BME280;59240;51.370;-0.486;2022-07-21T02:11:24;101840.09;;;16.80;73.66
71424;BME280;59240;51.370;-0.486;2022-07-21T02:13:51;101864.44;;;16.88;73.72
71424;BME280;59240;51.370;-0.486;2022-07-21T02:16:18;101882.38;;;17.04;73.87
71424;BME280;59240;51.370;-0.486;2022-07-21T02:18:45;101867.69;;;16.97;73.63
71424;BME280;59240;51.370;-0.486;2022-07-21T02:21:12;101864.31;;;16.91;73.56
71424;BME280;59240;51.370;-0.486;2022-07-21T02:23:39;101851.47;;;16.82;73.26
71424;BME280;59240;51.370;-0.486;2022-07-21T02:26:06;101853.97;;;16.85;73.11
71424;BME280;59240;51.370;-0.486;2022-07-21T02:28:33;101857.53;;;16.84;73.50
71424;BME280;59240;51.370;-0.486;2022-07-21T02:31:00;101873.84;;;16.95;73.37
71424;BME280;59240;51.370;-0.486;2022-07-21T02:33:27;101868.78;;;16.89;73.01
71424;BME280;59240;51.370;-0.486;2022-07-21T02:35:54;101870.63;;;16.86;73.11
71424;BME280;59240;51.370;-0.486;2022-07-21T02:38:21;101878.41;;;16.90;73.33
71424;BME280;59240;51.370;-0.486;2022-07-21T02:40:48;101855.03;;;16.80;73.17
71424;BME280;59240;51.370;-0.486;2022-07-21T02:43:22;101885.38;;;16.91;72.64
71424;BME280;59240;51.370;-0.486;2022-07-21T02:45:49;101878.47;;;16.87;73.21
71424;BME280;59240;51.370;-0.486;2022-07-21T02:48:16;101854.34;;;16.73;72.60
71424;BME280;59240;51.370;-0.486;2022-07-21T02:50:43;101881.09;;;16.87;72.71
71424;BME280;59240;51.370;-0.486;2022-07-21T02:53:16;101857.91;;;16.72;74.14
71424;BME280;59240;51.370;-0.486;2022-07-21T02:55:47;101866.41;;;16.80;73.00
71424;BME280;59240;51.370;-0.486;2022-07-21T03:00:59;101870.81;;;16.80;73.30
71424;BME280;59240;51.370;-0.486;2022-07-21T03:03:34;101869.28;;;16.73;74.35
71424;BME280;59240;51.370;-0.486;2022-07-21T03:06:02;101878.03;;;16.73;72.50
71424;BME280;59240;51.370;-0.486;2022-07-21T03:08:29;101872.88;;;16.70;72.21
71424;BME280;59240;51.370;-0.486;2022-07-21T03:10:56;101871.31;;;16.63;72.51
71424;BME280;59240;51.370;-0.486;2022-07-21T03:13:23;101857.66;;;16.50;72.21
71424;BME280;59240;51.370;-0.486;2022-07-21T03:15:50;101876.00;;;16.52;72.74
71424;BME280;59240;51.370;-0.486;2022-07-21T03:18:17;101861.44;;;16.40;72.83
71424;BME280;59240;51.370;-0.486;2022-07-21T03:20:44;101888.34;;;16.50;72.65
71424;BME280;59240;51.370;-0.486;2022-07-21T03:23:12;101845.34;;;16.21;72.49
71424;BME280;59240;51.370;-0.486;2022-07-21T03:25:38;101870.50;;;16.30;72.60
71424;BME280;59240;51.370;-0.486;2022-07-21T03:28:05;101873.19;;;16.28;72.93
71424;BME280;59240;51.370;-0.486;2022-07-21T03:30:33;101870.78;;;16.19;72.29
71424;BME280;59240;51.370;-0.486;2022-07-21T03:33:00;101893.38;;;16.26;72.69
71424;BME280;59240;51.370;-0.486;2022-07-21T03:35:27;101880.66;;;16.11;72.72
71424;BME280;59240;51.370;-0.486;2022-07-21T03:37:57;101875.56;;;16.05;73.71
71424;BME280;59240;51.370;-0.486;2022-07-21T03:40:28;101892.91;;;16.12;73.06
71424;BME280;59240;51.370;-0.486;2022-07-21T03:42:57;101905.16;;;16.13;72.54
71424;BME280;59240;51.370;-0.486;2022-07-21T03:45:25;101909.63;;;16.09;72.53
71424;BME280;59240;51.370;-0.486;2022-07-21T03:47:52;101860.53;;;15.77;72.55
71424;BME280;59240;51.370;-0.486;2022-07-21T03:50:19;101870.84;;;15.86;72.81
71424;BME280;59240;51.370;-0.486;2022-07-21T03:52:46;101909.72;;;16.06;72.21
71424;BME280;59240;51.370;-0.486;2022-07-21T03:55:14;101895.13;;;15.95;73.35
71424;BME280;59240;51.370;-0.486;2022-07-21T03:58:11;101913.22;;;16.05;75.68
71424;BME280;59240;51.370;-0.486;2022-07-21T04:00:40;101912.38;;;16.05;72.35
71424;BME280;59240;51.370;-0.486;2022-07-21T04:03:07;101915.91;;;16.04;72.39
71424;BME280;59240;51.370;-0.486;2022-07-21T04:05:35;101900.28;;;15.98;72.35
71424;BME280;59240;51.370;-0.486;2022-07-21T04:08:03;101921.16;;;16.04;72.24
71424;BME280;59240;51.370;-0.486;2022-07-21T04:10:33;101879.69;;;15.82;72.65
71424;BME280;59240;51.370;-0.486;2022-07-21T04:13:02;101886.66;;;15.83;72.51
71424;BME280;59240;51.370;-0.486;2022-07-21T04:15:29;101915.88;;;16.05;73.25
71424;BME280;59240;51.370;-0.486;2022-07-21T04:17:56;101900.41;;;15.95;72.07
71424;BME280;59240;51.370;-0.486;2022-07-21T04:20:23;101902.22;;;15.93;72.11
71424;BME280;59240;51.370;-0.486;2022-07-21T04:22:50;101917.72;;;16.02;71.72
71424;BME280;59240;51.370;-0.486;2022-07-21T04:25:18;101928.28;;;16.00;72.22
71424;BME280;59240;51.370;-0.486;2022-07-21T04:27:46;101924.03;;;15.95;72.17
71424;BME280;59240;51.370;-0.486;2022-07-21T04:30:17;101912.84;;;15.88;72.94
71424;BME280;59240;51.370;-0.486;2022-07-21T04:32:45;101932.75;;;15.97;72.15
71424;BME280;59240;51.370;-0.486;2022-07-21T04:35:12;101919.81;;;15.89;72.13
71424;BME280;59240;51.370;-0.486;2022-07-21T04:37:39;101910.41;;;15.80;72.66
71424;BME280;59240;51.370;-0.486;2022-07-21T04:40:07;101926.84;;;15.89;72.41
71424;BME280;59240;51.370;-0.486;2022-07-21T04:42:35;101910.50;;;15.76;72.15
71424;BME280;59240;51.370;-0.486;2022-07-21T04:45:04;101918.44;;;15.74;72.51
71424;BME280;59240;51.370;-0.486;2022-07-21T04:47:31;101914.19;;;15.69;72.14
71424;BME280;59240;51.370;-0.486;2022-07-21T04:49:58;101947.00;;;15.88;72.29
71424;BME280;59240;51.370;-0.486;2022-07-21T04:52:24;101923.75;;;15.71;72.75
71424;BME280;59240;51.370;-0.486;2022-07-21T04:54:51;101947.97;;;15.84;72.72
71424;BME280;59240;51.370;-0.486;2022-07-21T04:57:18;101944.50;;;15.82;72.44
71424;BME280;59240;51.370;-0.486;2022-07-21T04:59:44;101927.22;;;15.73;71.64
71424;BME280;59240;51.370;-0.486;2022-07-21T05:02:11;101938.50;;;15.78;72.26
71424;BME280;59240;51.370;-0.486;2022-07-21T05:04:38;101942.91;;;15.76;71.72
71424;BME280;59240;51.370;-0.486;2022-07-21T05:07:04;101961.97;;;15.84;71.67
71424;BME280;59240;51.370;-0.486;2022-07-21T05:09:31;101958.50;;;15.82;72.04
71424;BME280;59240;51.370;-0.486;2022-07-21T05:11:58;101958.50;;;15.82;71.44
71424;BME280;59240;51.370;-0.486;2022-07-21T05:14:24;101967.06;;;15.91;71.88
71424;BME280;59240;51.370;-0.486;2022-07-21T05:16:52;101972.31;;;15.92;72.19
71424;BME280;59240;51.370;-0.486;2022-07-21T05:19:18;101942.09;;;15.74;71.53
71424;BME280;59240;51.370;-0.486;2022-07-21T05:21:45;101970.53;;;15.93;71.65
71424;BME280;59240;51.370;-0.486;2022-07-21T05:24:13;101953.09;;;15.89;71.55
71424;BME280;59240;51.370;-0.486;2022-07-21T05:26:41;101967.81;;;15.96;71.83
71424;BME280;59240;51.370;-0.486;2022-07-21T05:29:08;101948.75;;;15.88;71.68
71424;BME280;59240;51.370;-0.486;2022-07-21T05:31:34;101975.56;;;16.02;71.57
71424;BME280;59240;51.370;-0.486;2022-07-21T05:34:01;101952.16;;;15.91;71.78
71424;BME280;59240;51.370;-0.486;2022-07-21T05:36:28;101968.47;;;16.04;71.86
71424;BME280;59240;51.370;-0.486;2022-07-21T05:38:55;101969.28;;;16.07;71.51
71424;BME280;59240;51.370;-0.486;2022-07-21T05:41:22;101938.91;;;15.96;71.87
71424;BME280;59240;51.370;-0.486;2022-07-21T05:43:49;101960.50;;;16.08;71.53
71424;BME280;59240;51.370;-0.486;2022-07-21T05:46:16;101958.66;;;16.10;71.15
71424;BME280;59240;51.370;-0.486;2022-07-21T05:48:43;101964.78;;;16.11;71.31
71424;BME280;59240;51.370;-0.486;2022-07-21T05:51:10;101963.00;;;16.13;71.68
71424;BME280;59240;51.370;-0.486;2022-07-21T05:53:43;101969.06;;;16.15;71.38
71424;BME280;59240;51.370;-0.486;2022-07-21T05:56:10;101946.59;;;16.03;71.04
71424;BME280;59240;51.370;-0.486;2022-07-21T05:58:37;101966.50;;;16.12;71.96
71424;BME280;59240;51.370;-0.486;2022-07-21T06:01:04;101983.84;;;16.19;71.12
71424;BME280;59240;51.370;-0.486;2022-07-21T06:03:45;102001.13;;;16.29;72.18
71424;BME280;59240;51.370;-0.486;2022-07-21T06:06:15;101980.50;;;16.14;71.55
71424;BME280;59240;51.370;-0.486;2022-07-21T06:08:44;101994.31;;;16.22;71.62
71424;BME280;59240;51.370;-0.486;2022-07-21T06:11:13;102004.56;;;16.31;71.21
71424;BME280;59240;51.370;-0.486;2022-07-21T06:13:41;101968.31;;;16.10;71.36
71424;BME280;59240;51.370;-0.486;2022-07-21T06:16:08;102017.50;;;16.40;71.55
71424;BME280;59240;51.370;-0.486;2022-07-21T06:18:35;101994.06;;;16.31;71.18
71424;BME280;59240;51.370;-0.486;2022-07-21T06:21:03;101992.81;;;16.45;71.00
71424;BME280;59240;51.370;-0.486;2022-07-21T06:23:30;101996.84;;;16.58;71.51
71424;BME280;59240;51.370;-0.486;2022-07-21T06:25:56;101973.97;;;16.60;70.81
71424;BME280;59240;51.370;-0.486;2022-07-21T06:28:23;102016.63;;;17.04;70.73
71424;BME280;59240;51.370;-0.486;2022-07-21T06:30:51;102027.63;;;17.18;69.99
71424;BME280;59240;51.370;-0.486;2022-07-21T06:33:18;102004.00;;;17.15;69.75
71424;BME280;59240;51.370;-0.486;2022-07-21T06:35:45;101995.06;;;17.20;70.40
71424;BME280;59240;51.370;-0.486;2022-07-21T06:38:12;102007.56;;;17.42;69.90
71424;BME280;59240;51.370;-0.486;2022-07-21T06:40:40;102026.88;;;17.72;69.25
71424;BME280;59240;51.370;-0.486;2022-07-21T06:43:09;102006.69;;;17.69;68.88
71424;BME280;59240;51.370;-0.486;2022-07-21T06:45:55;102022.94;;;17.85;69.28
71424;BME280;59240;51.370;-0.486;2022-07-21T06:48:23;102032.78;;;18.07;68.58
71424;BME280;59240;51.370;-0.486;2022-07-21T06:50:52;102016.84;;;18.10;67.75
71424;BME280;59240;51.370;-0.486;2022-07-21T06:53:19;102013.13;;;18.15;67.65
71424;BME280;59240;51.370;-0.486;2022-07-21T06:55:46;102042.06;;;18.43;67.69
71424;BME280;59240;51.370;-0.486;2022-07-21T06:58:15;102048.72;;;18.55;67.66
71424;BME280;59240;51.370;-0.486;2022-07-21T07:00:46;102049.16;;;18.68;68.67
71424;BME280;59240;51.370;-0.486;2022-07-21T07:03:15;102014.91;;;18.65;67.30
71424;BME280;59240;51.370;-0.486;2022-07-21T07:05:43;102052.41;;;18.99;66.05
71424;BME280;59240;51.370;-0.486;2022-07-21T07:08:10;102032.97;;;19.02;66.20
71424;BME280;59240;51.370;-0.486;2022-07-21T07:10:39;102060.34;;;19.23;65.62
71424;BME280;59240;51.370;-0.486;2022-07-21T07:13:06;102028.13;;;19.13;65.42
71424;BME280;59240;51.370;-0.486;2022-07-21T07:15:53;102043.69;;;19.21;65.34
71424;BME280;59240;51.370;-0.486;2022-07-21T07:18:20;102035.09;;;19.16;64.85
71424;BME280;59240;51.370;-0.486;2022-07-21T07:20:48;102034.84;;;19.22;64.22
71424;BME280;59240;51.370;-0.486;2022-07-21T07:23:15;102014.84;;;19.14;64.32
71424;BME280;59240;51.370;-0.486;2022-07-21T07:25:44;102058.31;;;19.53;64.17
71424;BME280;59240;51.370;-0.486;2022-07-21T07:28:11;102056.88;;;19.67;63.43
71424;BME280;59240;51.370;-0.486;2022-07-21T07:30:38;102048.16;;;19.65;63.68
71424;BME280;59240;51.370;-0.486;2022-07-21T07:33:06;102044.94;;;19.79;63.09
71424;BME280;59240;51.370;-0.486;2022-07-21T07:35:32;102022.00;;;19.80;62.84
71424;BME280;59240;51.370;-0.486;2022-07-21T07:37:59;102042.44;;;19.98;62.00
71424;BME280;59240;51.370;-0.486;2022-07-21T07:40:26;102065.41;;;20.18;61.75
71424;BME280;59240;51.370;-0.486;2022-07-21T07:42:53;102052.28;;;20.15;61.39
71424;BME280;59240;51.370;-0.486;2022-07-21T07:45:20;102039.13;;;20.13;61.31
71424;BME280;59240;51.370;-0.486;2022-07-21T07:47:47;102021.53;;;20.12;61.90
71424;BME280;59240;51.370;-0.486;2022-07-21T07:50:14;102059.13;;;20.41;61.46
71424;BME280;59240;51.370;-0.486;2022-07-21T07:52:43;102069.25;;;20.53;60.89
71424;BME280;59240;51.370;-0.486;2022-07-21T07:55:12;102062.88;;;20.57;60.95
71424;BME280;59240;51.370;-0.486;2022-07-21T07:57:40;102052.94;;;20.62;60.07
71424;BME280;59240;51.370;-0.486;2022-07-21T08:00:12;102049.09;;;20.69;61.23
71424;BME280;59240;51.370;-0.486;2022-07-21T08:02:59;102070.44;;;20.85;59.84
71424;BME280;59240;51.370;-0.486;2022-07-21T08:05:26;102050.00;;;20.89;60.55
71424;BME280;59240;51.370;-0.486;2022-07-21T08:07:53;102051.16;;;21.02;60.26
71424;BME280;59240;51.370;-0.486;2022-07-21T08:10:20;102044.50;;;21.12;59.65
71424;BME280;59240;51.370;-0.486;2022-07-21T08:13:07;102050.31;;;21.20;59.18
71424;BME280;59240;51.370;-0.486;2022-07-21T08:15:35;102051.50;;;21.34;59.40
71424;BME280;59240;51.370;-0.486;2022-07-21T08:18:03;102063.22;;;21.47;58.85
71424;BME280;59240;51.370;-0.486;2022-07-21T08:20:30;102052.91;;;21.41;58.59
71424;BME280;59240;51.370;-0.486;2022-07-21T08:22:57;102063.09;;;21.50;58.23
71424;BME280;59240;51.370;-0.486;2022-07-21T08:25:23;102022.97;;;21.39;58.85
71424;BME280;59240;51.370;-0.486;2022-07-21T08:27:50;102075.63;;;21.84;58.29
71424;BME280;59240;51.370;-0.486;2022-07-21T08:30:17;102051.50;;;21.89;57.74
71424;BME280;59240;51.370;-0.486;2022-07-21T08:32:43;102056.28;;;21.99;57.07
71424;BME280;59240;51.370;-0.486;2022-07-21T08:35:10;102054.09;;;22.07;57.05
71424;BME280;59240;51.370;-0.486;2022-07-21T08:37:38;102076.16;;;22.27;56.96
71424;BME280;59240;51.370;-0.486;2022-07-21T08:40:10;102042.91;;;22.20;57.13
71424;BME280;59240;51.370;-0.486;2022-07-21T08:42:37;102029.09;;;22.30;56.09
71424;BME280;59240;51.370;-0.486;2022-07-21T08:45:05;102057.47;;;22.63;56.62
71424;BME280;59240;51.370;-0.486;2022-07-21T08:47:31;102072.59;;;22.78;55.03
71424;BME280;59240;51.370;-0.486;2022-07-21T08:49:58;102028.13;;;22.66;55.62
71424;BME280;59240;51.370;-0.486;2022-07-21T08:52:25;102043.88;;;22.86;55.26
71424;BME280;59240;51.370;-0.486;2022-07-21T08:54:52;102019.13;;;22.84;54.38
71424;BME280;59240;51.370;-0.486;2022-07-21T08:57:19;102082.53;;;23.25;54.19
71424;BME280;59240;51.370;-0.486;2022-07-21T08:59:46;102066.25;;;23.31;53.57
71424;BME280;59240;51.370;-0.486;2022-07-21T09:02:31;102083.84;;;23.50;53.04
71424;BME280;59240;51.370;-0.486;2022-07-21T09:04:59;102085.47;;;23.52;53.13
71424;BME280;59240;51.370;-0.486;2022-07-21T09:07:26;102064.00;;;23.39;52.79
71424;BME280;59240;51.370;-0.486;2022-07-21T09:10:00;102095.09;;;23.55;52.90
71424;BME280;59240;51.370;-0.486;2022-07-21T09:12:27;102083.50;;;23.56;52.57
71424;BME280;59240;51.370;-0.486;2022-07-21T09:15:17;102090.97;;;23.49;53.06
71424;BME280;59240;51.370;-0.486;2022-07-21T09:18:15;102082.56;;;23.41;51.42
71424;BME280;59240;51.370;-0.486;2022-07-21T09:20:48;102078.97;;;23.42;53.85
71424;BME280;59240;51.370;-0.486;2022-07-21T09:23:18;102064.19;;;23.36;53.60
71424;BME280;59240;51.370;-0.486;2022-07-21T09:25:48;102068.41;;;23.40;52.82
71424;BME280;59240;51.370;-0.486;2022-07-21T09:28:24;102093.97;;;23.59;52.16
71424;BME280;59240;51.370;-0.486;2022-07-21T09:30:58;102087.28;;;23.52;51.80
71424;BME280;59240;51.370;-0.486;2022-07-21T09:33:29;102086.16;;;23.56;52.64
71424;BME280;59240;51.370;-0.486;2022-07-21T09:38:34;102086.53;;;23.65;53.25
71424;BME280;59240;51.370;-0.486;2022-07-21T09:41:16;102061.38;;;23.55;51.90
71424;BME280;59240;51.370;-0.486;2022-07-21T09:43:51;102085.00;;;23.77;51.48
71424;BME280;59240;51.370;-0.486;2022-07-21T09:46:22;102086.34;;;23.84;52.44
71424;BME280;59240;51.370;-0.486;2022-07-21T09:48:52;102039.34;;;23.69;51.77
71424;BME280;59240;51.370;-0.486;2022-07-21T09:51:39;102071.41;;;23.97;51.40
71424;BME280;59240;51.370;-0.486;2022-07-21T09:54:12;102075.66;;;24.16;51.87
71424;BME280;59240;51.370;-0.486;2022-07-21T09:56:44;102070.53;;;24.27;51.23
71424;BME280;59240;51.370;-0.486;2022-07-21T09:59:12;102086.13;;;24.49;50.29
71424;BME280;59240;51.370;-0.486;2022-07-21T10:01:40;102085.66;;;24.56;50.68
71424;BME280;59240;51.370;-0.486;2022-07-21T10:04:07;102089.69;;;24.64;50.21
71424;BME280;59240;51.370;-0.486;2022-07-21T10:06:38;102064.56;;;24.53;50.53
71424;BME280;59240;51.370;-0.486;2022-07-21T10:09:08;102089.13;;;24.73;50.14
71424;BME280;59240;51.370;-0.486;2022-07-21T10:11:40;102087.34;;;24.73;49.33
71424;BME280;59240;51.370;-0.486;2022-07-21T10:14:12;102062.97;;;24.65;49.90
71424;BME280;59240;51.370;-0.486;2022-07-21T10:16:39;102067.63;;;24.76;49.49
71424;BME280;59240;51.370;-0.486;2022-07-21T10:19:24;102098.88;;;25.02;49.40
71424;BME280;59240;51.370;-0.486;2022-07-21T10:24:30;102090.50;;;25.23;48.05
71424;BME280;59240;51.370;-0.486;2022-07-21T10:27:11;102088.41;;;25.28;47.87
71424;BME280;59240;51.370;-0.486;2022-07-21T10:32:21;102066.53;;;25.08;48.03
71424;BME280;59240;51.370;-0.486;2022-07-21T10:34:48;102087.25;;;25.18;47.67
71424;BME280;59240;51.370;-0.486;2022-07-21T10:45:37;102090.63;;;25.62;47.66
71424;BME280;59240;51.370;-0.486;2022-07-21T10:48:06;102055.94;;;25.62;46.89
71424;BME280;59240;51.370;-0.486;2022-07-21T10:50:36;102067.34;;;25.79;46.74
71424;BME280;59240;51.370;-0.486;2022-07-21T10:53:04;102085.03;;;25.94;46.34
71424;BME280;59240;51.370;-0.486;2022-07-21T10:55:35;102082.91;;;25.99;45.84
71424;BME280;59240;51.370;-0.486;2022-07-21T11:00:56;102076.88;;;26.10;45.51
71424;BME280;59240;51.370;-0.486;2022-07-21T11:03:35;102051.94;;;25.97;43.77
71424;BME280;59240;51.370;-0.486;2022-07-21T11:06:24;102081.06;;;26.27;44.84
71424;BME280;59240;51.370;-0.486;2022-07-21T11:11:33;102074.31;;;26.21;44.95
71424;BME280;59240;51.370;-0.486;2022-07-21T11:19:44;102067.44;;;26.04;44.52
71424;BME280;59240;51.370;-0.486;2022-07-21T11:24:48;102055.19;;;25.75;44.97
71424;BME280;59240;51.370;-0.486;2022-07-21T11:27:20;102074.63;;;25.77;45.64
71424;BME280;59240;51.370;-0.486;2022-07-21T11:29:51;102088.53;;;25.82;45.46
71424;BME280;59240;51.370;-0.486;2022-07-21T11:32:19;102061.28;;;25.62;45.00
71424;BME280;59240;51.370;-0.486;2022-07-21T11:34:55;102100.34;;;25.78;45.95
71424;BME280;59240;51.370;-0.486;2022-07-21T11:37:40;102087.84;;;25.78;45.13
71424;BME280;59240;51.370;-0.486;2022-07-21T11:40:18;102064.53;;;25.68;45.21
71424;BME280;59240;51.370;-0.486;2022-07-21T11:42:51;102055.94;;;25.62;45.63
71424;BME280;59240;51.370;-0.486;2022-07-21T11:45:23;102076.88;;;25.83;45.20
71424;BME280;59240;51.370;-0.486;2022-07-21T11:48:07;102039.31;;;25.72;45.29
71424;BME280;59240;51.370;-0.486;2022-07-21T11:50:38;102023.31;;;25.72;45.00
71424;BME280;59240;51.370;-0.486;2022-07-21T11:53:08;102067.66;;;26.01;45.49
71424;BME280;59240;51.370;-0.486;2022-07-21T11:55:35;102022.69;;;25.95;44.89
71424;BME280;59240;51.370;-0.486;2022-07-21T11:58:02;102007.22;;;26.13;44.35
71424;BME280;59240;51.370;-0.486;2022-07-21T12:00:32;102024.13;;;26.39;43.74
71424;BME280;59240;51.370;-0.486;2022-07-21T12:03:06;102014.97;;;26.43;43.53
71424;BME280;59240;51.370;-0.486;2022-07-21T12:05:41;102031.22;;;26.65;43.19
71424;BME280;59240;51.370;-0.486;2022-07-21T12:08:09;102021.28;;;26.67;42.62
71424;BME280;59240;51.370;-0.486;2022-07-21T12:10:45;102008.13;;;26.64;42.89
71424;BME280;59240;51.370;-0.486;2022-07-21T12:13:54;102067.75;;;27.03;43.49
71424;BME280;59240;51.370;-0.486;2022-07-21T12:16:32;102033.41;;;26.97;43.07
71424;BME280;59240;51.370;-0.486;2022-07-21T12:19:14;102022.66;;;26.86;41.78
71424;BME280;59240;51.370;-0.486;2022-07-21T12:21:45;102068.88;;;27.13;42.19
71424;BME280;59240;51.370;-0.486;2022-07-21T12:24:12;102017.06;;;26.89;42.17
71424;BME280;59240;51.370;-0.486;2022-07-21T12:26:39;102031.84;;;27.07;42.23
71424;BME280;59240;51.370;-0.486;2022-07-21T12:29:08;102026.69;;;27.04;42.55
71424;BME280;59240;51.370;-0.486;2022-07-21T12:31:36;102047.22;;;27.16;41.81
71424;BME280;59240;51.370;-0.486;2022-07-21T12:34:14;102007.22;;;26.89;41.97
71424;BME280;59240;51.370;-0.486;2022-07-21T12:37:01;102046.47;;;27.27;42.18
71424;BME280;59240;51.370;-0.486;2022-07-21T12:40:02;102038.56;;;27.25;41.15
71424;BME280;59240;51.370;-0.486;2022-07-21T12:42:32;102058.72;;;27.42;41.51
71424;BME280;59240;51.370;-0.486;2022-07-21T12:51:27;102003.56;;;27.03;42.06
71424;BME280;59240;51.370;-0.486;2022-07-21T12:53:57;102016.34;;;27.12;41.31
71424;BME280;59240;51.370;-0.486;2022-07-21T12:56:36;102033.22;;;27.25;40.80
71424;BME280;59240;51.370;-0.486;2022-07-21T12:59:03;102002.53;;;27.06;40.91
71424;BME280;59240;51.370;-0.486;2022-07-21T13:01:47;102020.19;;;27.08;41.13
71424;BME280;59240;51.370;-0.486;2022-07-21T13:04:14;102024.97;;;27.16;41.75
71424;BME280;59240;51.370;-0.486;2022-07-21T13:06:45;102000.59;;;26.95;41.62
71424;BME280;59240;51.370;-0.486;2022-07-21T13:09:12;102021.25;;;27.06;40.98
71424;BME280;59240;51.370;-0.486;2022-07-21T13:11:45;102020.47;;;27.04;41.50
71424;BME280;59240;51.370;-0.486;2022-07-21T13:14:15;102020.31;;;27.07;41.60
71424;BME280;59240;51.370;-0.486;2022-07-21T13:16:45;102011.72;;;27.02;41.02
71424;BME280;59240;51.370;-0.486;2022-07-21T13:19:15;102025.81;;;27.16;41.47
71424;BME280;59240;51.370;-0.486;2022-07-21T13:21:43;102042.84;;;27.15;41.44
71424;BME280;59240;51.370;-0.486;2022-07-21T13:24:09;102059.19;;;27.23;41.39
71424;BME280;59240;51.370;-0.486;2022-07-21T13:26:37;102024.97;;;27.03;40.57
71424;BME280;59240;51.370;-0.486;2022-07-21T13:29:03;101998.91;;;26.81;41.32
71424;BME280;59240;51.370;-0.486;2022-07-21T13:31:33;102036.97;;;27.10;41.41